Aviation Digital Data Service (ADDS)

Output produced by METARs form (0626 UTC 24 September 2018)
found at http://www.aviationweather.gov/metar/data/
 
KSAV 240553Z AUTO 03004KT 10SM OVC065 23/22 A3007 RMK AO2 SLP182 T02330222 10261 20233 58003 $
KSAV 240535Z 2406/2506 07006KT P6SM SCT080 
     FM241000 05005KT P6SM SCT025 
     FM241500 09008KT P6SM SCT025 SCT040 
     FM241900 12010KT P6SM SCT040